sensor_id;sensor_type;location;lat;lon;timestamp;P1;durP1;ratioP1;P2;durP2;ratioP2
14722;SDS011;7452;55.594;12.986;2022-07-10T00:00:08;13.77;;;2.80;;
14722;SDS011;7452;55.594;12.986;2022-07-10T00:02:37;10.43;;;2.70;;
14722;SDS011;7452;55.594;12.986;2022-07-10T00:05:05;11.47;;;2.70;;
14722;SDS011;7452;55.594;12.986;2022-07-10T00:07:32;14.17;;;2.77;;
14722;SDS011;7452;55.594;12.986;2022-07-10T00:09:59;11.70;;;2.60;;
14722;SDS011;7452;55.594;12.986;2022-07-10T00:12:27;11.80;;;2.50;;
14722;SDS011;7452;55.594;12.986;2022-07-10T00:14:53;13.63;;;3.17;;
14722;SDS011;7452;55.594;12.986;2022-07-10T00:17:20;9.63;;;3.00;;
14722;SDS011;7452;55.594;12.986;2022-07-10T00:19:49;14.17;;;2.77;;
14722;SDS011;7452;55.594;12.986;2022-07-10T00:22:16;9.17;;;2.40;;
14722;SDS011;7452;55.594;12.986;2022-07-10T00:24:43;12.17;;;2.73;;
14722;SDS011;7452;55.594;12.986;2022-07-10T00:27:10;14.93;;;3.10;;
14722;SDS011;7452;55.594;12.986;2022-07-10T00:29:37;7.17;;;2.37;;
14722;SDS011;7452;55.594;12.986;2022-07-10T00:32:04;11.80;;;2.83;;
14722;SDS011;7452;55.594;12.986;2022-07-10T00:34:31;10.73;;;2.80;;
14722;SDS011;7452;55.594;12.986;2022-07-10T00:37:00;10.27;;;2.77;;
14722;SDS011;7452;55.594;12.986;2022-07-10T00:39:27;12.10;;;3.30;;
14722;SDS011;7452;55.594;12.986;2022-07-10T00:41:54;8.37;;;2.67;;
14722;SDS011;7452;55.594;12.986;2022-07-10T00:44:21;7.63;;;2.23;;
14722;SDS011;7452;55.594;12.986;2022-07-10T00:46:48;11.07;;;2.33;;
14722;SDS011;7452;55.594;12.986;2022-07-10T00:49:15;9.27;;;2.80;;
14722;SDS011;7452;55.594;12.986;2022-07-10T00:51:42;16.30;;;3.30;;
14722;SDS011;7452;55.594;12.986;2022-07-10T00:54:11;13.10;;;3.23;;
14722;SDS011;7452;55.594;12.986;2022-07-10T00:56:38;12.37;;;3.00;;
14722;SDS011;7452;55.594;12.986;2022-07-10T00:59:05;15.47;;;3.10;;
14722;SDS011;7452;55.594;12.986;2022-07-10T01:01:32;10.10;;;2.80;;
14722;SDS011;7452;55.594;12.986;2022-07-10T01:04:00;13.83;;;2.60;;
14722;SDS011;7452;55.594;12.986;2022-07-10T01:06:27;14.10;;;3.10;;
14722;SDS011;7452;55.594;12.986;2022-07-10T01:08:53;12.67;;;3.10;;
14722;SDS011;7452;55.594;12.986;2022-07-10T01:11:22;6.60;;;2.30;;
14722;SDS011;7452;55.594;12.986;2022-07-10T01:13:49;10.83;;;2.40;;
14722;SDS011;7452;55.594;12.986;2022-07-10T01:16:16;9.53;;;2.87;;
14722;SDS011;7452;55.594;12.986;2022-07-10T01:18:43;10.63;;;2.57;;
14722;SDS011;7452;55.594;12.986;2022-07-10T01:21:25;13.20;;;2.97;;
14722;SDS011;7452;55.594;12.986;2022-07-10T01:23:52;13.73;;;2.87;;
14722;SDS011;7452;55.594;12.986;2022-07-10T01:26:20;9.53;;;2.17;;
14722;SDS011;7452;55.594;12.986;2022-07-10T01:28:49;11.83;;;2.80;;
14722;SDS011;7452;55.594;12.986;2022-07-10T01:31:17;15.83;;;3.20;;
14722;SDS011;7452;55.594;12.986;2022-07-10T01:33:44;13.87;;;2.90;;
14722;SDS011;7452;55.594;12.986;2022-07-10T01:36:12;16.17;;;3.27;;
14722;SDS011;7452;55.594;12.986;2022-07-10T01:38:41;11.33;;;2.60;;
14722;SDS011;7452;55.594;12.986;2022-07-10T01:41:08;9.87;;;2.77;;
14722;SDS011;7452;55.594;12.986;2022-07-10T01:43:36;11.00;;;2.70;;
14722;SDS011;7452;55.594;12.986;2022-07-10T01:46:07;13.90;;;2.90;;
14722;SDS011;7452;55.594;12.986;2022-07-10T01:48:36;13.07;;;3.20;;
14722;SDS011;7452;55.594;12.986;2022-07-10T01:51:03;16.57;;;2.97;;
14722;SDS011;7452;55.594;12.986;2022-07-10T01:53:31;13.67;;;3.23;;
14722;SDS011;7452;55.594;12.986;2022-07-10T01:55:59;11.87;;;2.70;;
14722;SDS011;7452;55.594;12.986;2022-07-10T01:58:29;13.90;;;3.40;;
14722;SDS011;7452;55.594;12.986;2022-07-10T02:00:56;10.97;;;2.97;;
14722;SDS011;7452;55.594;12.986;2022-07-10T02:03:23;14.23;;;3.30;;
14722;SDS011;7452;55.594;12.986;2022-07-10T02:06:07;12.70;;;3.10;;
14722;SDS011;7452;55.594;12.986;2022-07-10T02:08:34;15.33;;;2.90;;
14722;SDS011;7452;55.594;12.986;2022-07-10T02:11:03;10.33;;;2.40;;
14722;SDS011;7452;55.594;12.986;2022-07-10T02:13:30;9.63;;;2.60;;
14722;SDS011;7452;55.594;12.986;2022-07-10T02:15:57;13.70;;;2.53;;
14722;SDS011;7452;55.594;12.986;2022-07-10T02:18:25;10.13;;;2.63;;
14722;SDS011;7452;55.594;12.986;2022-07-10T02:20:52;13.20;;;3.20;;
14722;SDS011;7452;55.594;12.986;2022-07-10T02:23:19;12.50;;;2.93;;
14722;SDS011;7452;55.594;12.986;2022-07-10T02:25:46;14.67;;;2.53;;
14722;SDS011;7452;55.594;12.986;2022-07-10T02:28:15;16.77;;;3.40;;
14722;SDS011;7452;55.594;12.986;2022-07-10T02:30:42;12.53;;;2.83;;
14722;SDS011;7452;55.594;12.986;2022-07-10T02:33:09;13.17;;;2.63;;
14722;SDS011;7452;55.594;12.986;2022-07-10T02:35:36;10.03;;;2.67;;
14722;SDS011;7452;55.594;12.986;2022-07-10T02:38:03;16.83;;;2.80;;
14722;SDS011;7452;55.594;12.986;2022-07-10T02:40:30;11.37;;;2.90;;
14722;SDS011;7452;55.594;12.986;2022-07-10T02:42:57;13.90;;;3.13;;
14722;SDS011;7452;55.594;12.986;2022-07-10T02:45:25;13.07;;;3.03;;
14722;SDS011;7452;55.594;12.986;2022-07-10T02:47:52;10.03;;;2.93;;
14722;SDS011;7452;55.594;12.986;2022-07-10T02:50:19;15.73;;;3.60;;
14722;SDS011;7452;55.594;12.986;2022-07-10T02:52:46;12.47;;;2.80;;
14722;SDS011;7452;55.594;12.986;2022-07-10T02:55:13;9.80;;;2.63;;
14722;SDS011;7452;55.594;12.986;2022-07-10T02:57:40;14.13;;;2.57;;
14722;SDS011;7452;55.594;12.986;2022-07-10T03:00:08;13.30;;;3.20;;
14722;SDS011;7452;55.594;12.986;2022-07-10T03:02:38;10.30;;;3.17;;
14722;SDS011;7452;55.594;12.986;2022-07-10T03:05:05;10.83;;;3.23;;
14722;SDS011;7452;55.594;12.986;2022-07-10T03:07:33;15.37;;;3.30;;
14722;SDS011;7452;55.594;12.986;2022-07-10T03:10:00;13.87;;;2.83;;
14722;SDS011;7452;55.594;12.986;2022-07-10T03:12:27;15.20;;;3.03;;
14722;SDS011;7452;55.594;12.986;2022-07-10T03:14:54;10.47;;;3.50;;
14722;SDS011;7452;55.594;12.986;2022-07-10T03:17:21;10.57;;;2.90;;
14722;SDS011;7452;55.594;12.986;2022-07-10T03:19:49;13.80;;;3.00;;
14722;SDS011;7452;55.594;12.986;2022-07-10T03:22:16;14.47;;;3.23;;
14722;SDS011;7452;55.594;12.986;2022-07-10T03:24:43;12.33;;;2.73;;
14722;SDS011;7452;55.594;12.986;2022-07-10T03:27:11;14.47;;;3.27;;
14722;SDS011;7452;55.594;12.986;2022-07-10T03:29:39;13.10;;;3.17;;
14722;SDS011;7452;55.594;12.986;2022-07-10T03:32:07;14.13;;;2.73;;
14722;SDS011;7452;55.594;12.986;2022-07-10T03:34:34;17.60;;;3.40;;
14722;SDS011;7452;55.594;12.986;2022-07-10T03:37:03;14.20;;;3.10;;
14722;SDS011;7452;55.594;12.986;2022-07-10T03:39:30;13.90;;;2.87;;
14722;SDS011;7452;55.594;12.986;2022-07-10T03:41:57;17.20;;;3.20;;
14722;SDS011;7452;55.594;12.986;2022-07-10T03:44:25;13.50;;;3.10;;
14722;SDS011;7452;55.594;12.986;2022-07-10T03:46:52;12.87;;;2.53;;
14722;SDS011;7452;55.594;12.986;2022-07-10T03:49:19;15.70;;;3.53;;
14722;SDS011;7452;55.594;12.986;2022-07-10T03:51:46;11.93;;;3.33;;
14722;SDS011;7452;55.594;12.986;2022-07-10T03:54:14;14.80;;;2.90;;
14722;SDS011;7452;55.594;12.986;2022-07-10T03:56:41;15.13;;;3.33;;
14722;SDS011;7452;55.594;12.986;2022-07-10T03:59:26;13.43;;;2.87;;
14722;SDS011;7452;55.594;12.986;2022-07-10T04:01:53;14.83;;;2.80;;
14722;SDS011;7452;55.594;12.986;2022-07-10T04:04:20;13.13;;;2.90;;
14722;SDS011;7452;55.594;12.986;2022-07-10T04:06:47;12.90;;;2.83;;
14722;SDS011;7452;55.594;12.986;2022-07-10T04:09:15;12.60;;;3.17;;
14722;SDS011;7452;55.594;12.986;2022-07-10T04:11:42;11.03;;;3.03;;
14722;SDS011;7452;55.594;12.986;2022-07-10T04:14:09;10.60;;;3.20;;
14722;SDS011;7452;55.594;12.986;2022-07-10T04:16:36;14.20;;;2.80;;
14722;SDS011;7452;55.594;12.986;2022-07-10T04:19:03;11.43;;;3.00;;
14722;SDS011;7452;55.594;12.986;2022-07-10T04:21:30;12.90;;;2.77;;
14722;SDS011;7452;55.594;12.986;2022-07-10T04:23:57;16.30;;;2.93;;
14722;SDS011;7452;55.594;12.986;2022-07-10T04:26:25;13.07;;;2.30;;
14722;SDS011;7452;55.594;12.986;2022-07-10T04:28:52;12.63;;;3.27;;
14722;SDS011;7452;55.594;12.986;2022-07-10T04:31:19;11.33;;;2.80;;
14722;SDS011;7452;55.594;12.986;2022-07-10T04:33:47;12.33;;;2.90;;
14722;SDS011;7452;55.594;12.986;2022-07-10T04:36:14;11.90;;;2.93;;
14722;SDS011;7452;55.594;12.986;2022-07-10T04:38:41;12.40;;;2.47;;
14722;SDS011;7452;55.594;12.986;2022-07-10T04:41:08;11.83;;;2.97;;
14722;SDS011;7452;55.594;12.986;2022-07-10T04:43:36;11.10;;;2.90;;
14722;SDS011;7452;55.594;12.986;2022-07-10T04:46:03;10.50;;;3.00;;
14722;SDS011;7452;55.594;12.986;2022-07-10T04:48:32;18.83;;;3.30;;
14722;SDS011;7452;55.594;12.986;2022-07-10T04:50:59;8.73;;;2.80;;
14722;SDS011;7452;55.594;12.986;2022-07-10T04:53:26;11.57;;;2.80;;
14722;SDS011;7452;55.594;12.986;2022-07-10T04:55:53;9.57;;;2.30;;
14722;SDS011;7452;55.594;12.986;2022-07-10T04:58:20;14.97;;;3.00;;
14722;SDS011;7452;55.594;12.986;2022-07-10T05:00:48;12.57;;;2.90;;
14722;SDS011;7452;55.594;12.986;2022-07-10T05:03:15;11.20;;;2.53;;
14722;SDS011;7452;55.594;12.986;2022-07-10T05:05:42;11.23;;;2.47;;
14722;SDS011;7452;55.594;12.986;2022-07-10T05:08:09;8.27;;;2.50;;
14722;SDS011;7452;55.594;12.986;2022-07-10T05:10:36;8.33;;;2.57;;
14722;SDS011;7452;55.594;12.986;2022-07-10T05:13:05;13.87;;;3.70;;
14722;SDS011;7452;55.594;12.986;2022-07-10T05:15:32;10.43;;;2.50;;
14722;SDS011;7452;55.594;12.986;2022-07-10T05:18:00;10.27;;;2.50;;
14722;SDS011;7452;55.594;12.986;2022-07-10T05:20:27;9.57;;;2.43;;
14722;SDS011;7452;55.594;12.986;2022-07-10T05:22:54;11.30;;;2.93;;
14722;SDS011;7452;55.594;12.986;2022-07-10T05:25:22;10.50;;;2.43;;
14722;SDS011;7452;55.594;12.986;2022-07-10T05:27:51;11.63;;;2.57;;
14722;SDS011;7452;55.594;12.986;2022-07-10T05:30:18;8.33;;;2.27;;
14722;SDS011;7452;55.594;12.986;2022-07-10T05:32:46;12.93;;;3.10;;
14722;SDS011;7452;55.594;12.986;2022-07-10T05:35:14;9.80;;;2.27;;
14722;SDS011;7452;55.594;12.986;2022-07-10T05:37:41;15.40;;;2.90;;
14722;SDS011;7452;55.594;12.986;2022-07-10T05:40:09;10.03;;;2.30;;
14722;SDS011;7452;55.594;12.986;2022-07-10T05:42:36;7.30;;;2.30;;
14722;SDS011;7452;55.594;12.986;2022-07-10T05:45:03;11.73;;;2.73;;
14722;SDS011;7452;55.594;12.986;2022-07-10T05:47:31;11.17;;;2.53;;
14722;SDS011;7452;55.594;12.986;2022-07-10T05:49:59;9.83;;;2.70;;
14722;SDS011;7452;55.594;12.986;2022-07-10T05:52:27;10.77;;;2.20;;
14722;SDS011;7452;55.594;12.986;2022-07-10T05:54:55;9.30;;;2.20;;
14722;SDS011;7452;55.594;12.986;2022-07-10T05:57:22;8.23;;;2.33;;
14722;SDS011;7452;55.594;12.986;2022-07-10T05:59:49;8.40;;;2.37;;
14722;SDS011;7452;55.594;12.986;2022-07-10T06:02:17;5.57;;;2.17;;
14722;SDS011;7452;55.594;12.986;2022-07-10T06:04:45;12.20;;;2.10;;
14722;SDS011;7452;55.594;12.986;2022-07-10T06:07:12;13.43;;;2.73;;
14722;SDS011;7452;55.594;12.986;2022-07-10T06:09:40;7.77;;;2.10;;
14722;SDS011;7452;55.594;12.986;2022-07-10T06:12:08;10.83;;;2.30;;
14722;SDS011;7452;55.594;12.986;2022-07-10T06:14:35;12.30;;;2.40;;
14722;SDS011;7452;55.594;12.986;2022-07-10T06:17:02;9.87;;;2.00;;
14722;SDS011;7452;55.594;12.986;2022-07-10T06:19:29;10.83;;;2.30;;
14722;SDS011;7452;55.594;12.986;2022-07-10T06:21:56;7.80;;;2.27;;
14722;SDS011;7452;55.594;12.986;2022-07-10T06:24:42;9.17;;;2.37;;
14722;SDS011;7452;55.594;12.986;2022-07-10T06:27:09;11.00;;;2.40;;
14722;SDS011;7452;55.594;12.986;2022-07-10T06:29:36;6.97;;;2.27;;
14722;SDS011;7452;55.594;12.986;2022-07-10T06:32:04;7.30;;;2.00;;
14722;SDS011;7452;55.594;12.986;2022-07-10T06:34:31;9.87;;;1.90;;
14722;SDS011;7452;55.594;12.986;2022-07-10T06:36:58;9.20;;;1.80;;
14722;SDS011;7452;55.594;12.986;2022-07-10T06:39:25;7.93;;;1.97;;
14722;SDS011;7452;55.594;12.986;2022-07-10T06:41:55;7.83;;;2.03;;
14722;SDS011;7452;55.594;12.986;2022-07-10T06:44:22;9.73;;;2.10;;
14722;SDS011;7452;55.594;12.986;2022-07-10T06:46:49;12.97;;;2.50;;
14722;SDS011;7452;55.594;12.986;2022-07-10T06:49:30;7.20;;;2.20;;
14722;SDS011;7452;55.594;12.986;2022-07-10T06:51:57;5.93;;;1.80;;
14722;SDS011;7452;55.594;12.986;2022-07-10T06:54:24;4.90;;;1.70;;
14722;SDS011;7452;55.594;12.986;2022-07-10T06:56:52;7.90;;;2.07;;
14722;SDS011;7452;55.594;12.986;2022-07-10T06:59:20;8.30;;;1.87;;
14722;SDS011;7452;55.594;12.986;2022-07-10T07:01:47;5.77;;;1.60;;
14722;SDS011;7452;55.594;12.986;2022-07-10T07:04:14;6.20;;;1.70;;
14722;SDS011;7452;55.594;12.986;2022-07-10T07:06:41;8.83;;;1.90;;
14722;SDS011;7452;55.594;12.986;2022-07-10T07:09:08;11.90;;;1.87;;
14722;SDS011;7452;55.594;12.986;2022-07-10T07:11:35;7.13;;;1.90;;
14722;SDS011;7452;55.594;12.986;2022-07-10T07:14:02;8.20;;;2.00;;
14722;SDS011;7452;55.594;12.986;2022-07-10T07:16:31;7.40;;;1.90;;
14722;SDS011;7452;55.594;12.986;2022-07-10T07:19:06;4.67;;;1.60;;
14722;SDS011;7452;55.594;12.986;2022-07-10T07:21:35;8.40;;;1.63;;
14722;SDS011;7452;55.594;12.986;2022-07-10T07:24:20;5.57;;;1.73;;
14722;SDS011;7452;55.594;12.986;2022-07-10T07:26:47;5.40;;;1.67;;
14722;SDS011;7452;55.594;12.986;2022-07-10T07:29:14;8.03;;;1.77;;
14722;SDS011;7452;55.594;12.986;2022-07-10T07:31:43;5.70;;;1.70;;
14722;SDS011;7452;55.594;12.986;2022-07-10T07:34:10;8.13;;;1.93;;
14722;SDS011;7452;55.594;12.986;2022-07-10T07:36:37;5.70;;;1.63;;
14722;SDS011;7452;55.594;12.986;2022-07-10T07:39:05;5.73;;;1.43;;
14722;SDS011;7452;55.594;12.986;2022-07-10T07:41:32;5.70;;;1.63;;
14722;SDS011;7452;55.594;12.986;2022-07-10T07:43:59;4.63;;;1.53;;
14722;SDS011;7452;55.594;12.986;2022-07-10T07:46:26;5.83;;;1.67;;
14722;SDS011;7452;55.594;12.986;2022-07-10T07:48:54;6.73;;;1.70;;
14722;SDS011;7452;55.594;12.986;2022-07-10T07:51:22;5.13;;;1.63;;
14722;SDS011;7452;55.594;12.986;2022-07-10T07:53:49;8.70;;;1.90;;
14722;SDS011;7452;55.594;12.986;2022-07-10T07:56:16;7.30;;;1.80;;
14722;SDS011;7452;55.594;12.986;2022-07-10T07:58:43;9.23;;;1.93;;
14722;SDS011;7452;55.594;12.986;2022-07-10T08:01:10;6.10;;;1.50;;
14722;SDS011;7452;55.594;12.986;2022-07-10T08:03:37;6.23;;;1.47;;
14722;SDS011;7452;55.594;12.986;2022-07-10T08:06:06;6.57;;;1.83;;
14722;SDS011;7452;55.594;12.986;2022-07-10T08:08:33;5.63;;;1.50;;
14722;SDS011;7452;55.594;12.986;2022-07-10T08:11:00;8.40;;;2.03;;
14722;SDS011;7452;55.594;12.986;2022-07-10T08:13:27;7.10;;;1.60;;
14722;SDS011;7452;55.594;12.986;2022-07-10T08:15:55;6.33;;;1.70;;
14722;SDS011;7452;55.594;12.986;2022-07-10T08:18:22;7.60;;;1.63;;
14722;SDS011;7452;55.594;12.986;2022-07-10T08:20:49;8.50;;;1.50;;
14722;SDS011;7452;55.594;12.986;2022-07-10T08:23:17;7.93;;;1.73;;
14722;SDS011;7452;55.594;12.986;2022-07-10T08:25:44;5.67;;;1.50;;
14722;SDS011;7452;55.594;12.986;2022-07-10T08:28:11;7.03;;;1.63;;
14722;SDS011;7452;55.594;12.986;2022-07-10T08:30:38;5.03;;;1.57;;
14722;SDS011;7452;55.594;12.986;2022-07-10T08:33:07;5.60;;;1.53;;
14722;SDS011;7452;55.594;12.986;2022-07-10T08:35:34;10.47;;;1.83;;
14722;SDS011;7452;55.594;12.986;2022-07-10T08:38:01;7.27;;;2.73;;
14722;SDS011;7452;55.594;12.986;2022-07-10T08:40:33;5.53;;;1.50;;
14722;SDS011;7452;55.594;12.986;2022-07-10T08:43:02;5.83;;;1.47;;
14722;SDS011;7452;55.594;12.986;2022-07-10T08:45:30;3.83;;;1.30;;
14722;SDS011;7452;55.594;12.986;2022-07-10T08:47:59;4.77;;;1.40;;
14722;SDS011;7452;55.594;12.986;2022-07-10T08:50:29;3.63;;;1.40;;
14722;SDS011;7452;55.594;12.986;2022-07-10T08:53:00;4.90;;;1.30;;
14722;SDS011;7452;55.594;12.986;2022-07-10T08:55:35;5.87;;;1.33;;
14722;SDS011;7452;55.594;12.986;2022-07-10T08:58:03;6.27;;;1.40;;
14722;SDS011;7452;55.594;12.986;2022-07-10T09:00:30;6.30;;;1.43;;
14722;SDS011;7452;55.594;12.986;2022-07-10T09:02:58;4.87;;;1.20;;
14722;SDS011;7452;55.594;12.986;2022-07-10T09:05:25;3.60;;;1.40;;
14722;SDS011;7452;55.594;12.986;2022-07-10T09:07:52;4.57;;;1.20;;
14722;SDS011;7452;55.594;12.986;2022-07-10T09:10:20;5.33;;;1.13;;
14722;SDS011;7452;55.594;12.986;2022-07-10T09:12:50;4.80;;;1.30;;
14722;SDS011;7452;55.594;12.986;2022-07-10T09:15:19;5.67;;;1.20;;
14722;SDS011;7452;55.594;12.986;2022-07-10T09:17:54;5.00;;;1.30;;
14722;SDS011;7452;55.594;12.986;2022-07-10T09:20:26;5.37;;;1.30;;
14722;SDS011;7452;55.594;12.986;2022-07-10T09:22:55;3.80;;;1.17;;
14722;SDS011;7452;55.594;12.986;2022-07-10T09:25:26;4.83;;;1.60;;
14722;SDS011;7452;55.594;12.986;2022-07-10T09:27:58;5.43;;;1.60;;
14722;SDS011;7452;55.594;12.986;2022-07-10T09:30:37;4.93;;;1.20;;
14722;SDS011;7452;55.594;12.986;2022-07-10T09:33:22;4.50;;;1.30;;
14722;SDS011;7452;55.594;12.986;2022-07-10T09:35:57;4.47;;;1.20;;
14722;SDS011;7452;55.594;12.986;2022-07-10T09:38:47;6.57;;;1.10;;
14722;SDS011;7452;55.594;12.986;2022-07-10T09:41:23;5.47;;;1.30;;
14722;SDS011;7452;55.594;12.986;2022-07-10T09:43:53;2.73;;;0.90;;
14722;SDS011;7452;55.594;12.986;2022-07-10T09:46:22;3.67;;;0.80;;
14722;SDS011;7452;55.594;12.986;2022-07-10T09:49:06;2.97;;;1.00;;
14722;SDS011;7452;55.594;12.986;2022-07-10T09:51:35;2.73;;;1.13;;
14722;SDS011;7452;55.594;12.986;2022-07-10T09:54:04;3.47;;;1.03;;
14722;SDS011;7452;55.594;12.986;2022-07-10T09:56:33;5.70;;;1.03;;
14722;SDS011;7452;55.594;12.986;2022-07-10T09:59:08;4.40;;;1.00;;
14722;SDS011;7452;55.594;12.986;2022-07-10T10:01:36;3.13;;;1.10;;
14722;SDS011;7452;55.594;12.986;2022-07-10T10:04:04;3.00;;;1.00;;
14722;SDS011;7452;55.594;12.986;2022-07-10T10:06:32;4.90;;;0.90;;
14722;SDS011;7452;55.594;12.986;2022-07-10T10:09:03;8.03;;;1.23;;
14722;SDS011;7452;55.594;12.986;2022-07-10T10:11:32;3.90;;;1.07;;
14722;SDS011;7452;55.594;12.986;2022-07-10T10:14:00;3.27;;;1.03;;
14722;SDS011;7452;55.594;12.986;2022-07-10T10:16:30;2.43;;;1.10;;
14722;SDS011;7452;55.594;12.986;2022-07-10T10:18:57;2.17;;;0.80;;
14722;SDS011;7452;55.594;12.986;2022-07-10T10:21:43;3.78;;;1.02;;
14722;SDS011;7452;55.594;12.986;2022-07-10T10:24:11;3.28;;;0.70;;
14722;SDS011;7452;55.594;12.986;2022-07-10T10:26:40;2.13;;;0.80;;
14722;SDS011;7452;55.594;12.986;2022-07-10T10:29:08;3.05;;;0.80;;
14722;SDS011;7452;55.594;12.986;2022-07-10T10:31:37;4.40;;;1.00;;
14722;SDS011;7452;55.594;12.986;2022-07-10T10:34:05;3.55;;;0.90;;
14722;SDS011;7452;55.594;12.986;2022-07-10T10:36:45;2.33;;;0.85;;
14722;SDS011;7452;55.594;12.986;2022-07-10T10:39:13;2.40;;;0.70;;
14722;SDS011;7452;55.594;12.986;2022-07-10T10:41:45;1.95;;;0.80;;
14722;SDS011;7452;55.594;12.986;2022-07-10T10:44:21;4.07;;;0.95;;
14722;SDS011;7452;55.594;12.986;2022-07-10T10:46:59;2.28;;;0.75;;
14722;SDS011;7452;55.594;12.986;2022-07-10T10:49:49;5.80;;;0.90;;
14722;SDS011;7452;55.594;12.986;2022-07-10T10:52:22;3.30;;;0.80;;
14722;SDS011;7452;55.594;12.986;2022-07-10T10:55:00;3.13;;;0.65;;
14722;SDS011;7452;55.594;12.986;2022-07-10T10:57:37;1.73;;;0.68;;
14722;SDS011;7452;55.594;12.986;2022-07-10T11:00:09;2.67;;;0.75;;
14722;SDS011;7452;55.594;12.986;2022-07-10T11:02:41;2.03;;;0.68;;
14722;SDS011;7452;55.594;12.986;2022-07-10T11:08:10;3.13;;;0.75;;
14722;SDS011;7452;55.594;12.986;2022-07-10T11:10:39;1.70;;;0.63;;
14722;SDS011;7452;55.594;12.986;2022-07-10T11:13:07;2.67;;;0.52;;
14722;SDS011;7452;55.594;12.986;2022-07-10T11:15:36;2.60;;;0.57;;
14722;SDS011;7452;55.594;12.986;2022-07-10T11:18:06;2.50;;;0.50;;
14722;SDS011;7452;55.594;12.986;2022-07-10T11:20:35;3.10;;;0.70;;
14722;SDS011;7452;55.594;12.986;2022-07-10T11:23:24;1.85;;;0.65;;
14722;SDS011;7452;55.594;12.986;2022-07-10T11:26:09;1.70;;;0.73;;
14722;SDS011;7452;55.594;12.986;2022-07-10T11:28:46;2.55;;;0.75;;
14722;SDS011;7452;55.594;12.986;2022-07-10T11:31:17;1.30;;;0.45;;
14722;SDS011;7452;55.594;12.986;2022-07-10T11:33:46;2.88;;;0.50;;
14722;SDS011;7452;55.594;12.986;2022-07-10T11:36:14;2.55;;;0.60;;
14722;SDS011;7452;55.594;12.986;2022-07-10T11:38:42;1.10;;;0.45;;
14722;SDS011;7452;55.594;12.986;2022-07-10T11:41:16;2.33;;;0.50;;
14722;SDS011;7452;55.594;12.986;2022-07-10T11:43:48;1.85;;;0.40;;
14722;SDS011;7452;55.594;12.986;2022-07-10T11:46:15;0.50;;;0.30;;
14722;SDS011;7452;55.594;12.986;2022-07-10T11:48:43;1.58;;;0.50;;
14722;SDS011;7452;55.594;12.986;2022-07-10T11:51:15;0.50;;;0.35;;
14722;SDS011;7452;55.594;12.986;2022-07-10T11:53:58;0.93;;;0.28;;
14722;SDS011;7452;55.594;12.986;2022-07-10T11:56:26;1.33;;;0.43;;
14722;SDS011;7452;55.594;12.986;2022-07-10T11:58:57;0.40;;;0.28;;
14722;SDS011;7452;55.594;12.986;2022-07-10T12:01:25;1.02;;;0.40;;
14722;SDS011;7452;55.594;12.986;2022-07-10T12:03:59;2.00;;;0.50;;
14722;SDS011;7452;55.594;12.986;2022-07-10T12:06:27;1.17;;;0.40;;
14722;SDS011;7452;55.594;12.986;2022-07-10T12:08:55;2.95;;;0.45;;
14722;SDS011;7452;55.594;12.986;2022-07-10T12:11:22;1.70;;;0.40;;
14722;SDS011;7452;55.594;12.986;2022-07-10T12:13:50;2.35;;;0.40;;
14722;SDS011;7452;55.594;12.986;2022-07-10T12:16:18;1.08;;;0.47;;
14722;SDS011;7452;55.594;12.986;2022-07-10T12:18:46;0.43;;;0.40;;
14722;SDS011;7452;55.594;12.986;2022-07-10T12:21:16;0.98;;;0.50;;
14722;SDS011;7452;55.594;12.986;2022-07-10T12:23:43;2.33;;;0.60;;
14722;SDS011;7452;55.594;12.986;2022-07-10T12:26:11;3.05;;;0.40;;
14722;SDS011;7452;55.594;12.986;2022-07-10T12:28:53;1.83;;;0.45;;
14722;SDS011;7452;55.594;12.986;2022-07-10T12:31:25;0.28;;;0.20;;
14722;SDS011;7452;55.594;12.986;2022-07-10T12:33:58;1.15;;;0.47;;
14722;SDS011;7452;55.594;12.986;2022-07-10T12:36:45;1.20;;;0.35;;
14722;SDS011;7452;55.594;12.986;2022-07-10T12:39:15;1.50;;;0.30;;
14722;SDS011;7452;55.594;12.986;2022-07-10T12:41:53;2.78;;;0.40;;
14722;SDS011;7452;55.594;12.986;2022-07-10T12:44:30;3.08;;;0.40;;
14722;SDS011;7452;55.594;12.986;2022-07-10T12:47:01;2.17;;;0.32;;
14722;SDS011;7452;55.594;12.986;2022-07-10T12:49:28;2.13;;;0.47;;
14722;SDS011;7452;55.594;12.986;2022-07-10T12:51:57;1.40;;;0.60;;
14722;SDS011;7452;55.594;12.986;2022-07-10T12:54:30;1.95;;;0.38;;
14722;SDS011;7452;55.594;12.986;2022-07-10T12:57:01;2.08;;;0.30;;
14722;SDS011;7452;55.594;12.986;2022-07-10T12:59:31;1.13;;;0.20;;
14722;SDS011;7452;55.594;12.986;2022-07-10T13:01:59;0.47;;;0.22;;
14722;SDS011;7452;55.594;12.986;2022-07-10T13:04:50;0.50;;;0.25;;
14722;SDS011;7452;55.594;12.986;2022-07-10T13:07:20;1.60;;;0.20;;
14722;SDS011;7452;55.594;12.986;2022-07-10T13:09:54;1.23;;;0.30;;
14722;SDS011;7452;55.594;12.986;2022-07-10T13:12:21;1.75;;;0.40;;
14722;SDS011;7452;55.594;12.986;2022-07-10T13:14:48;1.85;;;0.40;;
14722;SDS011;7452;55.594;12.986;2022-07-10T13:17:16;1.48;;;0.30;;
14722;SDS011;7452;55.594;12.986;2022-07-10T13:19:43;2.58;;;0.30;;
14722;SDS011;7452;55.594;12.986;2022-07-10T13:22:10;3.13;;;0.32;;
14722;SDS011;7452;55.594;12.986;2022-07-10T13:24:38;1.77;;;0.70;;
14722;SDS011;7452;55.594;12.986;2022-07-10T13:27:05;1.58;;;0.60;;
14722;SDS011;7452;55.594;12.986;2022-07-10T13:29:32;1.98;;;0.32;;
14722;SDS011;7452;55.594;12.986;2022-07-10T13:31:59;1.40;;;0.35;;
14722;SDS011;7452;55.594;12.986;2022-07-10T13:34:27;1.25;;;0.40;;
14722;SDS011;7452;55.594;12.986;2022-07-10T13:36:54;3.05;;;0.50;;
14722;SDS011;7452;55.594;12.986;2022-07-10T13:39:22;0.93;;;0.20;;
14722;SDS011;7452;55.594;12.986;2022-07-10T13:41:51;1.90;;;0.50;;
14722;SDS011;7452;55.594;12.986;2022-07-10T13:44:17;1.77;;;0.47;;
14722;SDS011;7452;55.594;12.986;2022-07-10T13:46:45;2.58;;;0.40;;
14722;SDS011;7452;55.594;12.986;2022-07-10T13:49:12;1.23;;;0.40;;
14722;SDS011;7452;55.594;12.986;2022-07-10T13:51:39;3.42;;;0.55;;
14722;SDS011;7452;55.594;12.986;2022-07-10T13:54:05;2.08;;;0.40;;
14722;SDS011;7452;55.594;12.986;2022-07-10T13:56:32;0.98;;;0.20;;
14722;SDS011;7452;55.594;12.986;2022-07-10T13:59:01;1.00;;;0.50;;
14722;SDS011;7452;55.594;12.986;2022-07-10T14:01:28;1.27;;;0.40;;
14722;SDS011;7452;55.594;12.986;2022-07-10T14:03:55;2.15;;;0.50;;
14722;SDS011;7452;55.594;12.986;2022-07-10T14:06:22;2.58;;;0.52;;
14722;SDS011;7452;55.594;12.986;2022-07-10T14:08:49;2.75;;;0.60;;
14722;SDS011;7452;55.594;12.986;2022-07-10T14:11:16;1.85;;;0.28;;
14722;SDS011;7452;55.594;12.986;2022-07-10T14:13:44;2.40;;;0.40;;
14722;SDS011;7452;55.594;12.986;2022-07-10T14:16:13;1.10;;;0.60;;
14722;SDS011;7452;55.594;12.986;2022-07-10T14:18:39;0.57;;;0.30;;
14722;SDS011;7452;55.594;12.986;2022-07-10T14:21:07;3.22;;;0.60;;
14722;SDS011;7452;55.594;12.986;2022-07-10T14:23:35;1.65;;;0.40;;
14722;SDS011;7452;55.594;12.986;2022-07-10T14:26:04;1.63;;;0.40;;
14722;SDS011;7452;55.594;12.986;2022-07-10T14:28:31;1.60;;;0.73;;
14722;SDS011;7452;55.594;12.986;2022-07-10T14:31:00;2.97;;;0.77;;
14722;SDS011;7452;55.594;12.986;2022-07-10T14:33:29;1.30;;;0.55;;
14722;SDS011;7452;55.594;12.986;2022-07-10T14:35:57;3.50;;;0.73;;
14722;SDS011;7452;55.594;12.986;2022-07-10T14:38:24;5.45;;;0.90;;
14722;SDS011;7452;55.594;12.986;2022-07-10T14:40:51;2.33;;;0.60;;
14722;SDS011;7452;55.594;12.986;2022-07-10T14:43:18;4.43;;;0.90;;
14722;SDS011;7452;55.594;12.986;2022-07-10T14:45:46;2.97;;;0.50;;
14722;SDS011;7452;55.594;12.986;2022-07-10T14:48:13;3.95;;;0.82;;
14722;SDS011;7452;55.594;12.986;2022-07-10T14:50:41;1.88;;;0.60;;
14722;SDS011;7452;55.594;12.986;2022-07-10T14:53:08;2.78;;;0.60;;
14722;SDS011;7452;55.594;12.986;2022-07-10T14:55:36;1.40;;;0.40;;